Porto Maua, Brazil
Current Conditions -  °F | °C
As of 7:00 PM on Saturday 20 Dec 2014 (Local Time) from SGEN Reporting Station
Scattered Clouds Scattered Clouds  
Wind Chill: 95°   Ceiling: Unl
Heat Index: 103°   Visibility: 6mi
Dew Point: 72°   Wind: 21mph
Humidity: 47%   Direction: 20°NNE
Pressure: 29.44"   Gusts: NA
Location:  27.58°S, 54.67°W
Report Text: SGEN 202100Z 02018KT 9999 SCT030 SCT200 35/22 Q0997
Loading
Personal Weather Stations






























Interactive Weather Map New forecast layout! Learn more

10-Day Weather Forecast

Advertisements
Track Severe Weather on mobile